createdAt,value
2019-02-15T00:01:07.591Z,9.68
2019-02-15T00:03:36.234Z,10.68
2019-02-15T00:06:04.631Z,13.30
2019-02-15T00:08:33.082Z,9.63
2019-02-15T00:11:01.796Z,8.00
2019-02-15T00:13:30.186Z,10.25
2019-02-15T00:15:58.586Z,8.43
2019-02-15T00:18:34.654Z,9.65
2019-02-15T00:21:07.436Z,9.43
2019-02-15T00:23:36.135Z,7.80
2019-02-15T00:26:04.530Z,10.25
2019-02-15T00:28:33.249Z,9.70
2019-02-15T00:31:04.122Z,10.60
2019-02-15T00:33:32.582Z,11.35
2019-02-15T00:36:01.054Z,10.55
2019-02-15T00:38:29.537Z,9.23
2019-02-15T00:40:57.961Z,16.23
2019-02-15T00:43:26.358Z,9.70
2019-02-15T00:45:59.021Z,12.30
2019-02-15T00:48:28.678Z,9.53
2019-02-15T00:51:01.447Z,9.75
2019-02-15T00:53:34.176Z,10.35
2019-02-15T00:56:16.178Z,8.85
2019-02-15T00:59:02.700Z,8.45
2019-02-15T01:01:35.771Z,9.33
2019-02-15T01:04:05.810Z,7.45
2019-02-15T01:06:38.746Z,11.35
2019-02-15T01:09:17.493Z,8.43
2019-02-15T01:11:47.831Z,9.73
2019-02-15T01:14:16.226Z,8.28
2019-02-15T01:16:44.695Z,9.13
2019-02-15T01:19:13.102Z,10.10
2019-02-15T01:21:41.497Z,8.98
2019-02-15T01:24:09.899Z,7.65
2019-02-15T01:26:39.921Z,8.63
2019-02-15T01:29:15.610Z,8.08
2019-02-15T01:32:01.938Z,8.73
2019-02-15T01:34:43.876Z,7.42
2019-02-15T01:37:23.041Z,9.75
2019-02-15T01:40:05.241Z,9.18
2019-02-15T01:42:35.293Z,7.53
2019-02-15T01:45:06.691Z,7.45
2019-02-15T01:47:35.139Z,7.55
2019-02-15T01:50:05.243Z,7.00
2019-02-15T01:52:33.650Z,6.47
2019-02-15T01:55:02.301Z,8.15
2019-02-15T01:57:30.988Z,8.90
2019-02-15T01:59:59.626Z,7.95
2019-02-15T02:02:29.798Z,9.75
2019-02-15T02:04:58.190Z,7.65
2019-02-15T02:07:26.960Z,6.65
2019-02-15T02:09:55.542Z,8.28
2019-02-15T02:12:23.936Z,7.17
2019-02-15T02:14:52.410Z,6.03
2019-02-15T02:17:20.826Z,8.58
2019-02-15T02:19:49.458Z,7.33
2019-02-15T02:22:18.095Z,6.55
2019-02-15T02:24:46.952Z,7.87
2019-02-15T02:27:18.114Z,7.45
2019-02-15T02:29:46.762Z,6.67
2019-02-15T02:32:15.224Z,4.95
2019-02-15T02:34:43.890Z,5.62
2019-02-15T02:37:12.349Z,9.28
2019-02-15T02:39:40.730Z,7.20
2019-02-15T02:42:11.816Z,5.60
2019-02-15T02:44:40.205Z,8.38
2019-02-15T02:47:08.606Z,8.50
2019-02-15T02:49:37.051Z,6.03
2019-02-15T02:52:05.480Z,6.28
2019-02-15T02:54:33.885Z,8.03
2019-02-15T02:57:02.282Z,8.85
2019-02-15T02:59:30.678Z,6.42
2019-02-15T03:01:59.069Z,8.73
2019-02-15T03:04:27.469Z,8.38
2019-02-15T03:06:55.854Z,7.45
2019-02-15T03:09:24.258Z,6.97
2019-02-15T03:11:52.658Z,9.63
2019-02-15T03:14:21.055Z,8.53
2019-02-15T03:16:49.675Z,7.55
2019-02-15T03:19:18.074Z,6.08
2019-02-15T03:21:46.466Z,8.13
2019-02-15T03:24:14.867Z,7.53
2019-02-15T03:26:43.264Z,6.00
2019-02-15T03:29:11.661Z,7.42
2019-02-15T03:31:40.094Z,7.80
2019-02-15T03:34:08.534Z,6.15
2019-02-15T03:36:56.834Z,6.10
2019-02-15T03:39:26.871Z,5.03
2019-02-15T03:41:55.310Z,5.08
2019-02-15T03:44:23.743Z,6.53
2019-02-15T03:46:52.162Z,8.15
2019-02-15T03:49:20.551Z,6.50
2019-02-15T03:51:48.961Z,7.87
2019-02-15T03:54:17.341Z,8.65
2019-02-15T03:56:45.738Z,9.75
2019-02-15T03:59:14.164Z,7.67
2019-02-15T04:01:42.800Z,8.03
2019-02-15T04:04:11.190Z,6.72
2019-02-15T04:06:42.525Z,7.55
2019-02-15T04:09:10.981Z,7.67
2019-02-15T04:11:39.608Z,10.45
2019-02-15T04:14:08.076Z,7.47
2019-02-15T04:16:36.480Z,10.95
2019-02-15T04:19:04.878Z,7.47
2019-02-15T04:21:33.278Z,8.28
2019-02-15T04:24:01.934Z,7.03
2019-02-15T04:26:30.357Z,7.60
2019-02-15T04:28:58.742Z,6.60
2019-02-15T04:31:27.139Z,6.70
2019-02-15T04:33:55.545Z,9.15
2019-02-15T04:36:23.958Z,6.53
2019-02-15T04:38:52.442Z,6.60
2019-02-15T04:41:20.881Z,7.37
2019-02-15T04:43:49.518Z,5.58
2019-02-15T04:46:17.921Z,7.47
2019-02-15T04:48:46.323Z,8.93
2019-02-15T04:51:14.746Z,5.17
2019-02-15T04:53:43.140Z,5.60
2019-02-15T04:56:11.557Z,10.58
2019-02-15T04:58:40.010Z,5.92
2019-02-15T05:01:08.401Z,7.53
2019-02-15T05:03:36.832Z,9.65
2019-02-15T05:06:05.273Z,6.95
2019-02-15T05:08:33.695Z,6.25
2019-02-15T05:11:03.635Z,4.80
2019-02-15T05:13:32.022Z,8.50
2019-02-15T05:16:00.505Z,9.48
2019-02-15T05:18:29.177Z,6.90
2019-02-15T05:20:57.618Z,6.90
2019-02-15T05:23:26.252Z,6.95
2019-02-15T05:25:54.656Z,7.97
2019-02-15T05:28:23.310Z,7.10
2019-02-15T05:30:52.061Z,7.92
2019-02-15T05:33:21.422Z,6.90
2019-02-15T05:35:49.820Z,6.15
2019-02-15T05:38:18.281Z,5.70
2019-02-15T05:40:46.936Z,8.15
2019-02-15T05:43:15.394Z,7.15
2019-02-15T05:45:43.856Z,11.20
2019-02-15T05:48:12.283Z,6.00
2019-02-15T05:50:40.829Z,9.83
2019-02-15T05:53:09.222Z,6.33
2019-02-15T05:55:37.644Z,5.80
2019-02-15T05:58:06.029Z,7.55
2019-02-15T06:00:37.003Z,6.97
2019-02-15T06:03:04.553Z,5.20
2019-02-15T06:05:33.206Z,6.45
2019-02-15T06:08:01.593Z,6.12
2019-02-15T06:10:30.224Z,6.10
2019-02-15T06:12:58.614Z,5.78
2019-02-15T06:15:27.256Z,12.05
2019-02-15T06:17:55.719Z,6.55
2019-02-15T06:20:24.122Z,7.60
2019-02-15T06:22:52.848Z,7.30
2019-02-15T06:25:21.269Z,6.87
2019-02-15T06:27:49.890Z,7.65
2019-02-15T06:30:18.531Z,8.58
2019-02-15T06:32:47.026Z,8.08
2019-02-15T06:35:15.434Z,11.50
2019-02-15T06:37:43.836Z,6.53
2019-02-15T06:40:12.238Z,7.45
2019-02-15T06:42:40.666Z,8.98
2019-02-15T06:45:09.133Z,6.35
2019-02-15T06:47:37.584Z,8.75
2019-02-15T06:50:09.898Z,8.25
2019-02-15T06:52:38.317Z,10.68
2019-02-15T06:55:07.587Z,9.38
2019-02-15T06:57:35.982Z,6.90
2019-02-15T07:00:17.107Z,7.50
2019-02-15T07:02:47.383Z,8.20
2019-02-15T07:05:17.933Z,9.30
2019-02-15T07:07:46.372Z,7.00
2019-02-15T07:10:14.861Z,7.22
2019-02-15T07:12:43.250Z,10.65
2019-02-15T07:15:11.899Z,10.23
2019-02-15T07:17:40.304Z,9.20
2019-02-15T07:20:09.865Z,12.10
2019-02-15T07:22:38.267Z,10.03
2019-02-15T07:25:09.410Z,10.82
2019-02-15T07:27:39.485Z,8.03
2019-02-15T07:30:11.174Z,8.60
2019-02-15T07:32:39.572Z,8.65
2019-02-15T07:35:09.111Z,9.38
2019-02-15T07:37:37.626Z,9.45
2019-02-15T07:40:08.066Z,9.93
2019-02-15T07:42:36.474Z,7.25
2019-02-15T07:45:07.504Z,8.18
2019-02-15T07:47:35.904Z,7.87
2019-02-15T07:50:09.793Z,9.13
2019-02-15T07:52:38.197Z,8.45
2019-02-15T07:55:07.948Z,8.48
2019-02-15T07:57:36.343Z,9.13
2019-02-15T08:00:13.285Z,10.18
2019-02-15T08:02:41.694Z,12.28
2019-02-15T08:05:10.963Z,13.25
2019-02-15T08:07:39.599Z,12.63
2019-02-15T08:10:10.636Z,12.15
2019-02-15T08:12:39.057Z,12.28
2019-02-15T08:15:09.613Z,9.48
2019-02-15T08:17:38.008Z,12.27
2019-02-15T08:20:09.442Z,10.60
2019-02-15T08:22:37.838Z,11.53
2019-02-15T08:25:07.808Z,13.70
2019-02-15T08:27:36.451Z,13.73
2019-02-15T08:30:09.882Z,12.50
2019-02-15T08:32:38.367Z,12.67
2019-02-15T08:35:09.454Z,10.63
2019-02-15T08:37:37.845Z,10.83
2019-02-15T08:40:09.183Z,12.07
2019-02-15T08:42:37.691Z,12.57
2019-02-15T08:45:12.186Z,12.80
2019-02-15T08:47:40.919Z,15.53
2019-02-15T08:50:11.039Z,11.37
2019-02-15T08:52:39.526Z,11.43
2019-02-15T08:55:10.634Z,10.50
2019-02-15T08:57:39.017Z,9.90
2019-02-15T09:00:12.787Z,12.10
2019-02-15T09:02:41.182Z,14.23
2019-02-15T09:05:11.846Z,17.43
2019-02-15T09:07:40.312Z,13.73
2019-02-15T09:10:11.190Z,14.73
2019-02-15T09:12:39.902Z,13.70
2019-02-15T09:15:19.887Z,10.07
2019-02-15T09:17:48.278Z,11.77
2019-02-15T09:20:16.915Z,11.40
2019-02-15T09:22:45.314Z,12.00
2019-02-15T09:25:14.014Z,11.43
2019-02-15T09:27:46.966Z,11.30
2019-02-15T09:30:15.699Z,12.50
2019-02-15T09:32:44.098Z,9.73
2019-02-15T09:35:12.914Z,10.70
2019-02-15T09:37:41.293Z,12.53
2019-02-15T09:40:10.835Z,9.00
2019-02-15T09:42:39.469Z,12.30
2019-02-15T09:45:12.239Z,11.20
2019-02-15T09:47:40.646Z,12.97
2019-02-15T09:50:12.025Z,9.30
2019-02-15T09:52:40.198Z,9.57
2019-02-15T09:55:08.605Z,10.10
2019-02-15T09:57:37.867Z,10.07
2019-02-15T10:00:08.575Z,9.20
2019-02-15T10:02:37.210Z,12.97
2019-02-15T10:05:06.943Z,9.83
2019-02-15T10:07:35.580Z,9.63
2019-02-15T10:10:05.963Z,10.43
2019-02-15T10:12:34.357Z,10.90
2019-02-15T10:15:02.755Z,9.80
2019-02-15T10:17:31.158Z,10.00
2019-02-15T10:19:59.567Z,10.27
2019-02-15T10:22:27.965Z,10.83
2019-02-15T10:24:56.366Z,10.40
2019-02-15T10:27:24.758Z,9.57
2019-02-15T10:29:53.386Z,11.97
2019-02-15T10:32:21.795Z,11.17
2019-02-15T10:34:50.425Z,9.27
2019-02-15T10:37:18.825Z,7.20
2019-02-15T10:39:49.050Z,14.77
2019-02-15T10:42:17.473Z,6.43
2019-02-15T10:44:45.869Z,5.90
2019-02-15T10:47:22.958Z,9.43
2019-02-15T10:49:44.402Z,8.03
2019-02-15T10:52:12.806Z,7.13
2019-02-15T10:54:41.197Z,5.47
2019-02-15T10:57:09.594Z,7.10
2019-02-15T10:59:38.234Z,4.90
2019-02-15T11:02:06.638Z,5.40
2019-02-15T11:04:35.303Z,6.40
2019-02-15T11:07:03.935Z,5.00
2019-02-15T11:09:32.335Z,6.53
2019-02-15T11:12:00.996Z,6.53
2019-02-15T11:14:29.394Z,6.10
2019-02-15T11:16:57.797Z,8.73
2019-02-15T11:19:26.195Z,5.37
2019-02-15T11:21:54.600Z,5.23
2019-02-15T11:24:23.251Z,8.57
2019-02-15T11:26:51.650Z,4.63
2019-02-15T11:29:20.050Z,4.10
2019-02-15T11:31:48.690Z,4.17
2019-02-15T11:34:17.094Z,4.53
2019-02-15T11:36:45.735Z,6.70
2019-02-15T11:39:14.146Z,4.90
2019-02-15T11:41:42.559Z,7.17
2019-02-15T11:44:10.958Z,4.50
2019-02-15T11:46:39.366Z,5.70
2019-02-15T11:49:07.802Z,6.50
2019-02-15T11:51:36.201Z,4.07
2019-02-15T11:54:04.824Z,7.67
2019-02-15T11:56:33.222Z,6.70
2019-02-15T11:59:01.615Z,4.63
2019-02-15T12:01:30.637Z,7.13
2019-02-15T12:03:59.030Z,8.17
2019-02-15T12:06:27.472Z,5.90
2019-02-15T12:08:55.869Z,6.57
2019-02-15T12:11:24.281Z,4.93
2019-02-15T12:13:52.688Z,5.30
2019-02-15T12:16:21.091Z,5.97
2019-02-15T12:18:49.495Z,5.53
2019-02-15T12:21:17.953Z,5.40
2019-02-15T12:23:46.352Z,7.73
2019-02-15T12:26:14.742Z,5.67
2019-02-15T12:28:43.378Z,5.90
2019-02-15T12:31:11.797Z,4.00
2019-02-15T12:33:40.217Z,4.70
2019-02-15T12:36:08.597Z,5.23
2019-02-15T12:38:37.033Z,6.53
2019-02-15T12:41:05.482Z,7.17
2019-02-15T12:43:34.126Z,5.10
2019-02-15T12:46:02.563Z,4.93
2019-02-15T12:48:30.954Z,3.93
2019-02-15T12:50:59.588Z,3.30
2019-02-15T12:53:28.005Z,5.00
2019-02-15T12:55:56.642Z,4.70
2019-02-15T12:58:25.048Z,3.40
2019-02-15T13:00:53.683Z,4.60
2019-02-15T13:03:22.441Z,5.10
2019-02-15T13:05:50.926Z,2.83
2019-02-15T13:08:20.868Z,2.80
2019-02-15T13:10:49.398Z,5.60
2019-02-15T13:13:17.811Z,5.70
2019-02-15T13:16:01.390Z,3.63
2019-02-15T13:18:30.050Z,4.07
2019-02-15T13:20:58.457Z,3.00
2019-02-15T13:23:26.853Z,3.20
2019-02-15T13:25:55.340Z,4.17
2019-02-15T13:28:23.866Z,4.03
2019-02-15T13:30:52.309Z,3.73
2019-02-15T13:33:20.709Z,3.97
2019-02-15T13:35:49.740Z,5.57
2019-02-15T13:38:18.140Z,3.93
2019-02-15T13:40:46.794Z,3.80
2019-02-15T13:43:15.422Z,4.20
2019-02-15T13:45:43.881Z,3.90
2019-02-15T13:48:12.325Z,8.53
2019-02-15T13:50:40.801Z,3.30
2019-02-15T13:53:09.192Z,3.17
2019-02-15T13:55:37.880Z,5.30
2019-02-15T13:58:06.547Z,3.47
2019-02-15T14:00:35.169Z,2.33
2019-02-15T14:03:04.088Z,6.13
2019-02-15T14:05:32.553Z,3.87
2019-02-15T14:08:01.031Z,3.70
2019-02-15T14:10:29.721Z,4.60
2019-02-15T14:12:58.156Z,2.67
2019-02-15T14:15:26.577Z,5.80
2019-02-15T14:17:54.973Z,3.80
2019-02-15T14:20:23.441Z,2.80
2019-02-15T14:22:51.914Z,2.63
2019-02-15T14:25:20.326Z,5.80
2019-02-15T14:27:48.709Z,3.03
2019-02-15T14:30:17.109Z,3.13
2019-02-15T14:32:45.770Z,4.80
2019-02-15T14:35:14.540Z,3.00
2019-02-15T14:37:43.173Z,3.03
2019-02-15T14:40:12.848Z,3.60
2019-02-15T14:42:41.249Z,2.83
2019-02-15T14:45:11.281Z,4.00
2019-02-15T14:47:39.719Z,3.97
2019-02-15T14:50:10.325Z,4.43
2019-02-15T14:52:38.980Z,4.00
2019-02-15T14:55:09.935Z,2.50
2019-02-15T14:57:38.580Z,3.67
2019-02-15T15:00:10.285Z,4.30
2019-02-15T15:02:38.997Z,2.77
2019-02-15T15:05:08.438Z,5.83
2019-02-15T15:07:36.852Z,3.13
2019-02-15T15:10:08.349Z,2.43
2019-02-15T15:12:36.754Z,3.63
2019-02-15T15:15:08.611Z,6.20
2019-02-15T15:17:37.014Z,4.27
2019-02-15T15:20:08.370Z,3.87
2019-02-15T15:22:36.817Z,3.30
2019-02-15T15:25:08.073Z,2.83
2019-02-15T15:27:36.494Z,2.43
2019-02-15T15:30:07.887Z,4.33
2019-02-15T15:32:36.418Z,3.13
2019-02-15T15:35:05.686Z,6.03
2019-02-15T15:37:34.078Z,6.57
2019-02-15T15:40:02.724Z,4.43
2019-02-15T15:42:31.117Z,2.57
2019-02-15T15:44:59.527Z,2.17
2019-02-15T15:47:27.927Z,5.00
2019-02-15T15:49:56.435Z,2.50
2019-02-15T15:52:25.088Z,3.90
2019-02-15T15:54:53.483Z,3.60
2019-02-15T15:57:21.933Z,4.70
2019-02-15T15:59:50.577Z,3.47
2019-02-15T16:02:58.496Z,3.60
2019-02-15T16:05:27.543Z,4.07
2019-02-15T16:07:56.274Z,3.03
2019-02-15T16:10:25.412Z,9.73
2019-02-15T16:12:54.171Z,2.83
2019-02-15T16:15:23.427Z,3.93
2019-02-15T16:17:52.406Z,2.20
2019-02-15T16:20:20.926Z,3.53
2019-02-15T16:22:49.350Z,3.25
2019-02-15T16:25:47.369Z,4.58
2019-02-15T16:28:16.264Z,3.33
2019-02-15T16:30:46.983Z,2.60
2019-02-15T16:33:15.668Z,4.47
2019-02-15T16:35:44.065Z,3.35
2019-02-15T16:38:12.494Z,5.37
2019-02-15T16:40:40.925Z,3.30
2019-02-15T16:43:12.545Z,2.92
2019-02-15T16:45:40.947Z,3.65
2019-02-15T16:48:09.417Z,2.80
2019-02-15T16:50:38.138Z,2.52
2019-02-15T16:53:06.806Z,6.45
2019-02-15T16:55:35.192Z,3.20
2019-02-15T16:58:03.601Z,4.83
2019-02-15T17:00:32.005Z,2.40
2019-02-15T17:03:00.482Z,3.75
2019-02-15T17:05:28.878Z,5.65
2019-02-15T17:07:57.524Z,4.25
2019-02-15T17:10:25.951Z,5.17
2019-02-15T17:12:54.347Z,4.28
2019-02-15T17:15:22.735Z,3.70
2019-02-15T17:17:51.141Z,3.85
2019-02-15T17:20:19.534Z,7.83
2019-02-15T17:22:48.202Z,7.65
2019-02-15T17:25:16.837Z,4.47
2019-02-15T17:27:45.287Z,4.58
2019-02-15T17:30:13.957Z,4.92
2019-02-15T17:32:42.606Z,4.40
2019-02-15T17:35:11.679Z,4.53
2019-02-15T17:37:40.067Z,3.02
2019-02-15T17:40:11.201Z,2.65
2019-02-15T17:42:39.593Z,9.03
2019-02-15T17:45:10.133Z,3.05
2019-02-15T17:47:38.526Z,3.87
2019-02-15T17:50:09.157Z,7.58
2019-02-15T17:52:37.789Z,4.97
2019-02-15T17:55:08.691Z,4.47
2019-02-15T17:57:37.116Z,3.22
2019-02-15T18:00:08.725Z,6.05
2019-02-15T18:02:37.130Z,17.45
2019-02-15T18:05:08.714Z,5.55
2019-02-15T18:07:37.335Z,3.98
2019-02-15T18:10:06.325Z,6.10
2019-02-15T18:12:34.700Z,7.00
2019-02-15T18:15:03.397Z,5.42
2019-02-15T18:17:32.048Z,6.50
2019-02-15T18:20:00.461Z,5.10
2019-02-15T18:22:28.843Z,11.63
2019-02-15T18:24:57.551Z,5.95
2019-02-15T18:27:25.935Z,7.45
2019-02-15T18:29:54.336Z,9.15
2019-02-15T18:32:22.792Z,5.95
2019-02-15T18:34:51.190Z,5.60
2019-02-15T18:37:19.701Z,5.33
2019-02-15T18:39:48.112Z,7.15
2019-02-15T18:42:16.858Z,11.68
2019-02-15T18:44:45.318Z,7.37
2019-02-15T18:47:13.869Z,9.05
2019-02-15T18:49:42.275Z,6.00
2019-02-15T18:52:10.669Z,6.03
2019-02-15T18:54:40.657Z,7.30
2019-02-15T18:57:09.050Z,9.60
2019-02-15T18:59:39.417Z,8.73
2019-02-15T19:02:09.110Z,9.48
2019-02-15T19:04:37.558Z,9.93
2019-02-15T19:07:05.995Z,10.18
2019-02-15T19:09:34.381Z,6.92
2019-02-15T19:12:02.950Z,10.70
2019-02-15T19:14:31.742Z,8.43
2019-02-15T19:17:00.306Z,9.35
2019-02-15T19:19:29.370Z,6.80
2019-02-15T19:21:58.871Z,7.40
2019-02-15T19:24:30.113Z,6.22
2019-02-15T19:26:58.505Z,7.80
2019-02-15T19:29:27.387Z,13.25
2019-02-15T19:31:56.063Z,7.10
2019-02-15T19:34:27.412Z,9.80
2019-02-15T19:36:55.903Z,8.48
2019-02-15T19:39:24.344Z,8.58
2019-02-15T19:41:52.812Z,13.68
2019-02-15T19:44:21.241Z,7.50
2019-02-15T19:46:49.638Z,10.50
2019-02-15T19:49:18.039Z,11.95
2019-02-15T19:52:11.730Z,8.73
2019-02-15T19:54:40.230Z,9.28
2019-02-15T19:57:08.646Z,11.65
2019-02-15T19:59:37.041Z,10.82
2019-02-15T20:02:05.533Z,13.05
2019-02-15T20:04:34.151Z,12.00
2019-02-15T20:07:03.090Z,11.00
2019-02-15T20:09:31.626Z,12.85
2019-02-15T20:12:00.014Z,10.95
2019-02-15T20:14:28.415Z,10.43
2019-02-15T20:16:57.067Z,8.60
2019-02-15T20:19:25.583Z,10.80
2019-02-15T20:21:53.968Z,11.18
2019-02-15T20:24:22.505Z,9.70
2019-02-15T20:26:51.185Z,10.58
2019-02-15T20:29:19.582Z,10.88
2019-02-15T20:31:48.089Z,13.90
2019-02-15T20:34:16.537Z,9.68
2019-02-15T20:36:45.009Z,8.50
2019-02-15T20:39:13.413Z,8.65
2019-02-15T20:41:41.793Z,9.65
2019-02-15T20:44:10.222Z,10.93
2019-02-15T20:46:38.628Z,11.08
2019-02-15T20:49:07.389Z,8.43
2019-02-15T20:51:36.019Z,10.08
2019-02-15T20:54:04.416Z,9.65
2019-02-15T20:56:32.884Z,16.45
2019-02-15T20:59:01.342Z,10.88
2019-02-15T21:01:29.779Z,10.28
2019-02-15T21:03:58.617Z,11.10
2019-02-15T21:06:27.272Z,10.98
2019-02-15T21:08:55.918Z,10.75
2019-02-15T21:11:25.848Z,8.45
2019-02-15T21:13:54.237Z,8.65
2019-02-15T21:16:22.628Z,9.83
2019-02-15T21:18:51.090Z,9.25
2019-02-15T21:21:19.546Z,8.38
2019-02-15T21:23:48.178Z,11.28
2019-02-15T21:26:18.537Z,10.40
2019-02-15T21:28:46.934Z,15.15
2019-02-15T21:31:15.462Z,12.33
2019-02-15T21:33:43.888Z,10.32
2019-02-15T21:36:12.587Z,11.35
2019-02-15T21:38:40.988Z,11.83
2019-02-15T21:41:09.429Z,12.82
2019-02-15T21:43:38.148Z,12.53
2019-02-15T21:46:06.817Z,10.55
2019-02-15T21:48:35.206Z,12.07
2019-02-15T21:51:03.666Z,13.68
2019-02-15T21:53:32.061Z,15.93
2019-02-15T21:56:06.250Z,17.77
2019-02-15T21:58:34.652Z,12.88
2019-02-15T22:01:03.050Z,11.65
2019-02-15T22:03:34.591Z,11.50
2019-02-15T22:06:02.994Z,13.65
2019-02-15T22:08:31.397Z,14.83
2019-02-15T22:11:00.090Z,14.95
2019-02-15T22:13:28.537Z,14.63
2019-02-15T22:15:56.931Z,9.80
2019-02-15T22:18:25.343Z,13.18
2019-02-15T22:20:55.620Z,11.83
2019-02-15T22:23:24.046Z,15.28
2019-02-15T22:25:52.682Z,13.70
2019-02-15T22:28:21.082Z,12.28
2019-02-15T22:30:49.726Z,14.85
2019-02-15T22:33:18.122Z,14.13
2019-02-15T22:35:46.781Z,14.78
2019-02-15T22:38:15.468Z,15.80
2019-02-15T22:40:44.115Z,14.25
2019-02-15T22:43:21.745Z,17.57
2019-02-15T22:45:50.374Z,14.10
2019-02-15T22:48:18.781Z,21.20
2019-02-15T22:50:47.508Z,23.50
2019-02-15T22:53:17.546Z,23.52
2019-02-15T22:55:45.987Z,21.62
2019-02-15T22:58:14.383Z,13.10
2019-02-15T23:00:57.745Z,21.42
2019-02-15T23:03:27.498Z,22.17
2019-02-15T23:05:56.385Z,20.90
2019-02-15T23:08:25.100Z,23.30
2019-02-15T23:10:53.573Z,25.85
2019-02-15T23:13:22.280Z,17.80
2019-02-15T23:15:50.952Z,15.00
2019-02-15T23:18:19.365Z,16.45
2019-02-15T23:20:48.110Z,11.73
2019-02-15T23:23:16.891Z,18.27
2019-02-15T23:25:45.307Z,11.18
2019-02-15T23:28:14.001Z,12.53
2019-02-15T23:30:42.434Z,10.98
2019-02-15T23:33:10.834Z,11.30
2019-02-15T23:35:39.482Z,11.80
2019-02-15T23:38:07.888Z,12.82
2019-02-15T23:40:36.574Z,11.43
2019-02-15T23:43:05.030Z,8.93
2019-02-15T23:45:33.434Z,10.95
2019-02-15T23:48:02.145Z,9.98
2019-02-15T23:50:30.677Z,16.40
2019-02-15T23:52:59.097Z,10.53
2019-02-15T23:55:27.515Z,11.35
2019-02-15T23:57:55.914Z,13.00
